Archival Weather

Chicago O'Hare International

Chicago, Illinois (KORD)

Report from: Monday, January 2, 2023 8:33 PM CST
Current time: Monday, June 17, 2024 3:41 AM CDT

Current weather – Weather history – Daily summaries
Weather forecast

Present weatherMist
Temperature3.3°C (37.9°F)
Wind chill0.0°C (32.1°F)
Dew point1.7°C (35.1°F)
Winds 7 kts (3.6 m/s, 8.1 mph) Northeast (50°)
Visibility1.3 mi. (2 km)
Clouds Ceiling: Overcast 200 ft. (61 m)
Altimeter29.97 in.Hg (1015 mB)
Relative humidity89 %
Density altitude-1,373 ft. (-418 m)
Remarks Automated weather observing station with precipitation discriminator
Flight conditions Low Instrument Meteorological Conditions
Raw dataKORD 030233Z 05007KT 1 1/4SM BR OVC002 03/02 A2997 RMK AO2 T00330017
An error has occurred. This application may no longer respond until reloaded. Reload 🗙